createdAt,value
2019-01-19T00:00:20.063Z,1.62
2019-01-19T00:01:20.049Z,1.72
2019-01-19T00:02:20.041Z,1.77
2019-01-19T00:03:20.035Z,1.72
2019-01-19T00:04:20.015Z,1.62
2019-01-19T00:05:20.018Z,1.72
2019-01-19T00:06:20.001Z,1.72
2019-01-19T00:07:19.995Z,1.72
2019-01-19T00:08:19.985Z,1.68
2019-01-19T00:09:19.964Z,1.72
2019-01-19T00:10:19.948Z,1.79
2019-01-19T00:11:19.937Z,1.66
2019-01-19T00:12:19.941Z,1.69
2019-01-19T00:13:19.918Z,1.66
2019-01-19T00:14:19.900Z,1.79
2019-01-19T00:15:19.890Z,1.69
2019-01-19T00:16:19.880Z,1.72
2019-01-19T00:17:19.865Z,1.70
2019-01-19T00:18:19.859Z,1.68
2019-01-19T00:19:19.860Z,1.73
2019-01-19T00:20:19.833Z,1.79
2019-01-19T00:21:19.826Z,1.68
2019-01-19T00:22:19.824Z,1.70
2019-01-19T00:23:19.799Z,1.79
2019-01-19T00:24:19.799Z,1.70
2019-01-19T00:25:19.789Z,1.73
2019-01-19T00:26:19.778Z,1.73
2019-01-19T00:27:19.762Z,1.72
2019-01-19T00:28:19.792Z,1.72
2019-01-19T00:29:19.748Z,1.59
2019-01-19T00:30:19.730Z,1.68
2019-01-19T00:31:19.720Z,1.68
2019-01-19T00:32:19.722Z,1.68
2019-01-19T00:33:19.703Z,1.65
2019-01-19T00:34:19.692Z,1.69
2019-01-19T00:35:19.682Z,1.72
2019-01-19T00:36:19.674Z,1.72
2019-01-19T00:37:19.654Z,1.63
2019-01-19T00:38:19.652Z,1.69
2019-01-19T00:39:19.636Z,1.62
2019-01-19T00:40:19.621Z,1.60
2019-01-19T00:41:19.613Z,1.68
2019-01-19T00:42:19.608Z,1.60
2019-01-19T00:43:19.594Z,1.60
2019-01-19T00:44:19.583Z,1.60
2019-01-19T00:45:19.571Z,1.66
2019-01-19T00:46:19.565Z,1.69
2019-01-19T00:47:19.555Z,1.69
2019-01-19T00:48:19.552Z,1.70
2019-01-19T00:49:19.526Z,1.72
2019-01-19T00:50:19.524Z,1.72
2019-01-19T00:51:19.511Z,1.70
2019-01-19T00:52:20.456Z,1.72
2019-01-19T00:53:19.485Z,1.72
2019-01-19T00:54:19.478Z,1.70
2019-01-19T00:55:19.461Z,1.59
2019-01-19T00:56:19.454Z,1.65
2019-01-19T00:57:19.452Z,1.65
2019-01-19T00:58:19.438Z,1.70
2019-01-19T00:59:19.426Z,1.73
2019-01-19T01:00:19.411Z,1.66
2019-01-19T01:01:19.405Z,1.66
2019-01-19T01:02:19.396Z,1.73
2019-01-19T01:03:19.385Z,1.70
2019-01-19T01:04:19.373Z,1.72
2019-01-19T01:05:25.191Z,1.76
2019-01-19T01:06:20.352Z,1.77
2019-01-19T01:07:19.336Z,1.69
2019-01-19T01:08:19.327Z,1.72
2019-01-19T01:09:19.325Z,1.68
2019-01-19T01:10:19.308Z,1.70
2019-01-19T01:11:19.301Z,1.68
2019-01-19T01:12:19.287Z,1.62
2019-01-19T01:13:19.278Z,1.66
2019-01-19T01:14:19.265Z,1.70
2019-01-19T01:15:19.262Z,1.77
2019-01-19T01:16:19.244Z,1.73
2019-01-19T01:17:19.238Z,1.72
2019-01-19T01:18:19.220Z,1.70
2019-01-19T01:19:19.210Z,1.63
2019-01-19T01:20:19.208Z,1.73
2019-01-19T01:21:19.206Z,1.68
2019-01-19T01:22:19.186Z,1.79
2019-01-19T01:23:19.170Z,1.70
2019-01-19T01:24:19.160Z,1.72
2019-01-19T01:25:19.150Z,1.76
2019-01-19T01:26:19.146Z,1.70
2019-01-19T01:27:19.120Z,1.66
2019-01-19T01:28:19.117Z,1.70
2019-01-19T01:29:19.109Z,1.66
2019-01-19T01:30:19.100Z,1.80
2019-01-19T01:31:19.082Z,1.77
2019-01-19T01:32:19.074Z,1.72
2019-01-19T01:33:19.071Z,1.73
2019-01-19T01:34:19.060Z,1.68
2019-01-19T01:35:19.049Z,1.63
2019-01-19T01:36:19.040Z,1.60
2019-01-19T01:37:19.031Z,1.65
2019-01-19T01:38:19.021Z,1.72
2019-01-19T01:39:19.012Z,1.68
2019-01-19T01:40:18.994Z,1.66
2019-01-19T01:41:18.982Z,1.69
2019-01-19T01:42:18.972Z,1.69
2019-01-19T01:43:18.970Z,1.72
2019-01-19T01:44:18.944Z,1.76
2019-01-19T01:45:18.939Z,1.72
2019-01-19T01:46:18.926Z,1.66
2019-01-19T01:47:18.924Z,1.68
2019-01-19T01:48:18.972Z,1.69
2019-01-19T01:49:18.892Z,1.69
2019-01-19T01:50:18.892Z,1.69
2019-01-19T01:51:18.869Z,1.70
2019-01-19T01:52:18.862Z,1.52
2019-01-19T01:53:18.857Z,1.59
2019-01-19T01:54:18.847Z,1.62
2019-01-19T01:55:18.834Z,1.62
2019-01-19T01:56:18.818Z,1.73
2019-01-19T01:57:18.810Z,1.66
2019-01-19T01:58:18.804Z,1.66
2019-01-19T01:59:18.788Z,1.66
2019-01-19T02:00:18.782Z,1.69
2019-01-19T02:01:18.764Z,1.69
2019-01-19T02:02:18.764Z,1.66
2019-01-19T02:03:18.744Z,1.66
2019-01-19T02:04:18.740Z,1.63
2019-01-19T02:05:18.731Z,1.66
2019-01-19T02:06:18.717Z,1.62
2019-01-19T02:07:18.703Z,1.59
2019-01-19T02:08:18.700Z,1.63
2019-01-19T02:09:18.680Z,1.68
2019-01-19T02:10:18.675Z,1.68
2019-01-19T02:11:18.664Z,1.72
2019-01-19T02:12:18.657Z,1.72
2019-01-19T02:13:18.642Z,1.68
2019-01-19T02:14:18.626Z,1.68
2019-01-19T02:15:18.626Z,1.66
2019-01-19T02:16:18.607Z,1.72
2019-01-19T02:17:18.598Z,1.69
2019-01-19T02:18:18.596Z,1.69
2019-01-19T02:19:18.581Z,1.65
2019-01-19T02:20:18.566Z,1.65
2019-01-19T02:21:18.555Z,1.63
2019-01-19T02:22:18.549Z,1.76
2019-01-19T02:23:18.533Z,1.65
2019-01-19T02:24:18.521Z,1.68
2019-01-19T02:25:18.518Z,1.65
2019-01-19T02:26:18.500Z,1.68
2019-01-19T02:27:18.492Z,1.69
2019-01-19T02:28:18.482Z,1.68
2019-01-19T02:29:18.472Z,1.62
2019-01-19T02:30:18.462Z,1.63
2019-01-19T02:31:18.455Z,1.62
2019-01-19T02:32:18.442Z,1.52
2019-01-19T02:33:18.440Z,1.66
2019-01-19T02:34:18.422Z,1.65
2019-01-19T02:35:18.412Z,1.63
2019-01-19T02:36:18.400Z,1.69
2019-01-19T02:37:18.397Z,1.68
2019-01-19T02:38:18.379Z,1.68
2019-01-19T02:39:18.369Z,1.66
2019-01-19T02:40:18.359Z,1.69
2019-01-19T02:41:18.353Z,1.66
2019-01-19T02:42:18.371Z,1.66
2019-01-19T02:43:18.335Z,1.60
2019-01-19T02:44:18.312Z,1.70
2019-01-19T02:45:18.304Z,1.65
2019-01-19T02:46:18.290Z,1.59
2019-01-19T02:47:18.290Z,1.65
2019-01-19T02:48:18.273Z,1.52
2019-01-19T02:49:18.269Z,1.50
2019-01-19T02:50:18.246Z,1.60
2019-01-19T02:51:18.244Z,1.59
2019-01-19T02:52:18.236Z,1.59
2019-01-19T02:53:18.216Z,1.59
2019-01-19T02:54:18.212Z,1.52
2019-01-19T02:55:18.210Z,1.51
2019-01-19T02:56:18.190Z,1.63
2019-01-19T02:57:18.170Z,1.59
2019-01-19T02:58:18.168Z,1.58
2019-01-19T02:59:18.163Z,1.50
2019-01-19T03:00:18.151Z,1.66
2019-01-19T03:01:18.141Z,1.59
2019-01-19T03:02:18.125Z,1.62
2019-01-19T03:03:18.112Z,1.52
2019-01-19T03:04:18.102Z,1.48
2019-01-19T03:05:18.093Z,1.48
2019-01-19T03:06:18.086Z,1.51
2019-01-19T03:07:18.072Z,1.50
2019-01-19T03:08:18.063Z,1.54
2019-01-19T03:09:18.063Z,1.58
2019-01-19T03:10:18.040Z,1.50
2019-01-19T03:11:18.036Z,1.42
2019-01-19T03:12:18.021Z,1.44
2019-01-19T03:13:18.010Z,1.41
2019-01-19T03:14:18.005Z,1.41
2019-01-19T03:15:17.992Z,1.40
2019-01-19T03:16:17.974Z,1.42
2019-01-19T03:17:17.968Z,1.40
2019-01-19T03:18:17.955Z,1.50
2019-01-19T03:19:17.946Z,1.41
2019-01-19T03:20:17.938Z,1.37
2019-01-19T03:21:17.930Z,1.45
2019-01-19T03:22:19.498Z,1.40
2019-01-19T03:23:17.902Z,1.40
2019-01-19T03:24:17.899Z,1.47
2019-01-19T03:25:17.886Z,1.42
2019-01-19T03:26:17.876Z,1.42
2019-01-19T03:27:17.867Z,1.42
2019-01-19T03:28:17.851Z,1.40
2019-01-19T03:29:17.843Z,1.45
2019-01-19T03:30:17.839Z,1.41
2019-01-19T03:31:17.815Z,1.45
2019-01-19T03:32:17.810Z,1.51
2019-01-19T03:33:17.806Z,1.44
2019-01-19T03:34:17.790Z,1.41
2019-01-19T03:35:17.779Z,1.51
2019-01-19T03:36:17.767Z,1.40
2019-01-19T03:37:17.751Z,1.47
2019-01-19T03:38:17.770Z,1.42
2019-01-19T03:39:17.738Z,1.37
2019-01-19T03:40:17.727Z,1.40
2019-01-19T03:41:17.717Z,1.40
2019-01-19T03:42:17.710Z,1.54
2019-01-19T03:43:17.692Z,1.52
2019-01-19T03:44:17.678Z,1.50
2019-01-19T03:45:17.671Z,1.54
2019-01-19T03:46:17.660Z,1.58
2019-01-19T03:47:17.652Z,1.51
2019-01-19T03:48:17.642Z,1.54
2019-01-19T03:49:17.632Z,1.62
2019-01-19T03:50:17.617Z,1.58
2019-01-19T03:51:17.610Z,1.55
2019-01-19T03:52:17.594Z,1.50
2019-01-19T03:53:17.590Z,1.54
2019-01-19T03:54:17.572Z,1.50
2019-01-19T03:55:17.560Z,1.54
2019-01-19T03:56:17.552Z,1.55
2019-01-19T03:57:17.547Z,1.54
2019-01-19T03:58:17.534Z,1.54
2019-01-19T03:59:17.526Z,1.50
2019-01-19T04:00:17.510Z,1.52
2019-01-19T04:01:17.512Z,1.55
2019-01-19T04:02:17.512Z,1.52
2019-01-19T04:03:17.490Z,1.52
2019-01-19T04:04:17.478Z,1.50
2019-01-19T04:05:17.453Z,1.50
2019-01-19T04:06:17.454Z,1.42
2019-01-19T04:07:17.444Z,1.41
2019-01-19T04:08:17.430Z,1.44
2019-01-19T04:09:17.421Z,1.62
2019-01-19T04:10:17.409Z,1.52
2019-01-19T04:11:17.396Z,1.54
2019-01-19T04:12:17.384Z,1.55
2019-01-19T04:13:17.372Z,1.52
2019-01-19T04:14:17.363Z,1.55
2019-01-19T04:15:17.352Z,1.54
2019-01-19T04:16:17.339Z,1.58
2019-01-19T04:17:17.336Z,1.58
2019-01-19T04:18:17.327Z,1.51
2019-01-19T04:19:17.312Z,1.54
2019-01-19T04:20:17.314Z,1.60
2019-01-19T04:21:17.290Z,1.54
2019-01-19T04:22:17.282Z,1.52
2019-01-19T04:23:17.270Z,1.48
2019-01-19T04:24:17.258Z,1.52
2019-01-19T04:25:17.252Z,1.52
2019-01-19T04:26:17.234Z,1.68
2019-01-19T04:27:17.224Z,1.65
2019-01-19T04:28:17.216Z,1.55
2019-01-19T04:29:17.203Z,1.52
2019-01-19T04:30:17.196Z,1.54
2019-01-19T04:31:17.190Z,1.52
2019-01-19T04:32:17.176Z,1.52
2019-01-19T04:33:17.160Z,1.54
2019-01-19T04:34:17.150Z,1.62
2019-01-19T04:35:17.138Z,1.54
2019-01-19T04:36:21.631Z,1.54
2019-01-19T04:37:17.116Z,1.54
2019-01-19T04:38:17.117Z,1.62
2019-01-19T04:39:17.107Z,1.55
2019-01-19T04:40:17.094Z,1.52
2019-01-19T04:41:17.085Z,1.51
2019-01-19T04:42:17.066Z,1.68
2019-01-19T04:43:17.054Z,1.50
2019-01-19T04:44:17.045Z,1.58
2019-01-19T04:45:17.038Z,1.52
2019-01-19T04:46:17.029Z,1.58
2019-01-19T04:47:17.015Z,1.54
2019-01-19T04:48:17.004Z,1.54
2019-01-19T04:49:16.998Z,1.52
2019-01-19T04:50:16.978Z,1.48
2019-01-19T04:51:16.965Z,1.54
2019-01-19T04:52:16.959Z,1.47
2019-01-19T04:53:16.952Z,1.42
2019-01-19T04:54:16.940Z,1.42
2019-01-19T04:55:16.934Z,1.45
2019-01-19T04:56:16.916Z,1.42
2019-01-19T04:57:16.904Z,1.41
2019-01-19T04:58:16.896Z,1.33
2019-01-19T04:59:16.894Z,1.42
2019-01-19T05:00:17.899Z,1.40
2019-01-19T05:01:16.864Z,1.41
2019-01-19T05:02:16.852Z,1.37
2019-01-19T05:03:16.845Z,1.33
2019-01-19T05:04:16.826Z,1.34
2019-01-19T05:05:16.825Z,1.40
2019-01-19T05:06:16.815Z,1.29
2019-01-19T05:07:16.810Z,1.20
2019-01-19T05:08:16.788Z,1.08
2019-01-19T05:09:16.789Z,1.11
2019-01-19T05:10:16.776Z,1.05
2019-01-19T05:11:16.756Z,1.04
2019-01-19T05:12:16.748Z,1.06
2019-01-19T05:13:16.744Z,0.94
2019-01-19T05:14:16.726Z,1.02
2019-01-19T05:15:16.723Z,0.90
2019-01-19T05:16:16.704Z,0.96
2019-01-19T05:17:16.696Z,0.86
2019-01-19T05:18:16.682Z,0.84
2019-01-19T05:19:16.680Z,0.83
2019-01-19T05:20:16.661Z,0.75
2019-01-19T05:21:16.650Z,0.84
2019-01-19T05:22:16.646Z,0.76
2019-01-19T05:23:16.634Z,0.76
2019-01-19T05:24:16.620Z,0.76
2019-01-19T05:25:16.614Z,0.68
2019-01-19T05:26:16.604Z,0.62
2019-01-19T05:27:16.588Z,0.68
2019-01-19T05:28:16.585Z,0.57
2019-01-19T05:29:16.569Z,0.58
2019-01-19T05:30:16.555Z,0.60
2019-01-19T05:31:16.547Z,0.41
2019-01-19T05:32:16.543Z,0.49
2019-01-19T05:33:16.527Z,0.46
2019-01-19T05:34:16.524Z,0.41
2019-01-19T05:35:16.527Z,0.42
2019-01-19T05:36:16.493Z,0.38
2019-01-19T05:37:16.495Z,0.42
2019-01-19T05:38:16.480Z,0.44
2019-01-19T05:39:16.461Z,0.44
2019-01-19T05:40:16.457Z,0.39
2019-01-19T05:41:16.448Z,0.35
2019-01-19T05:42:16.428Z,0.41
2019-01-19T05:43:16.432Z,0.32
2019-01-19T05:44:16.412Z,0.36
2019-01-19T05:45:16.394Z,0.23
2019-01-19T05:46:21.334Z,0.26
2019-01-19T05:47:17.378Z,0.24
2019-01-19T05:48:16.371Z,0.31
2019-01-19T05:49:16.364Z,0.23
2019-01-19T05:50:16.358Z,0.20
2019-01-19T05:51:16.334Z,0.21
2019-01-19T05:52:16.323Z,0.26
2019-01-19T05:53:16.312Z,0.14
2019-01-19T05:54:16.302Z,0.10
2019-01-19T05:55:16.290Z,0.17
2019-01-19T05:56:16.289Z,0.04
2019-01-19T05:57:16.270Z,0.10
2019-01-19T05:58:16.268Z,-0.01
2019-01-19T05:59:16.250Z,0.00
2019-01-19T06:00:16.248Z,-0.03
2019-01-19T06:01:16.229Z,-0.04
2019-01-19T06:02:16.220Z,-0.01
2019-01-19T06:03:16.216Z,-0.11
2019-01-19T06:04:16.198Z,-0.21
2019-01-19T06:05:16.185Z,-0.18
2019-01-19T06:06:16.182Z,-0.14
2019-01-19T06:07:16.168Z,-0.21
2019-01-19T06:08:16.156Z,-0.23
2019-01-19T06:09:16.152Z,-0.19
2019-01-19T06:10:16.134Z,-0.18
2019-01-19T06:11:16.124Z,-0.23
2019-01-19T06:12:16.115Z,-0.23
2019-01-19T06:13:16.104Z,-0.25
2019-01-19T06:14:16.092Z,-0.28
2019-01-19T06:15:16.080Z,-0.34
2019-01-19T06:16:16.066Z,-0.36
2019-01-19T06:17:16.058Z,-0.40
2019-01-19T06:18:16.052Z,-0.42
2019-01-19T06:19:16.061Z,-0.39
2019-01-19T06:20:16.028Z,-0.44
2019-01-19T06:21:16.016Z,-0.44
2019-01-19T06:22:16.009Z,-0.44
2019-01-19T06:23:16.002Z,-0.52
2019-01-19T06:24:15.985Z,-0.43
2019-01-19T06:25:15.995Z,-0.47
2019-01-19T06:26:15.964Z,-0.52
2019-01-19T06:27:15.953Z,-0.47
2019-01-19T06:28:15.942Z,-0.57
2019-01-19T06:29:15.929Z,-0.47
2019-01-19T06:30:15.918Z,-0.58
2019-01-19T06:31:15.921Z,-0.58
2019-01-19T06:32:15.900Z,-0.70
2019-01-19T06:33:15.893Z,-0.64
2019-01-19T06:34:15.877Z,-0.67
2019-01-19T06:35:15.868Z,-0.72
2019-01-19T06:36:15.877Z,-0.73
2019-01-19T06:37:15.855Z,-0.78
2019-01-19T06:38:15.840Z,-0.70
2019-01-19T06:39:15.824Z,-0.70
2019-01-19T06:40:15.817Z,-0.70
2019-01-19T06:41:15.815Z,-0.70
2019-01-19T06:42:15.800Z,-0.72
2019-01-19T06:43:15.786Z,-0.72
2019-01-19T06:44:15.772Z,-0.72
2019-01-19T06:45:15.772Z,-0.75
2019-01-19T06:46:15.749Z,-0.83
2019-01-19T06:47:15.740Z,-0.80
2019-01-19T06:48:15.736Z,-0.78
2019-01-19T06:49:15.718Z,-0.73
2019-01-19T06:50:15.731Z,-0.83
2019-01-19T06:51:15.702Z,-0.78
2019-01-19T06:52:15.701Z,-0.80
2019-01-19T06:53:15.680Z,-0.73
2019-01-19T06:54:15.668Z,-0.75
2019-01-19T06:55:15.658Z,-0.79
2019-01-19T06:56:15.652Z,-0.73
2019-01-19T06:57:15.634Z,-0.75
2019-01-19T06:58:15.632Z,-0.89
2019-01-19T06:59:17.541Z,-0.91
2019-01-19T07:00:15.606Z,-0.89
2019-01-19T07:01:15.596Z,-0.98
2019-01-19T07:02:15.581Z,-0.92
2019-01-19T07:03:15.578Z,-0.97
2019-01-19T07:04:15.567Z,-0.97
2019-01-19T07:05:15.554Z,-0.98
2019-01-19T07:06:15.541Z,-0.92
2019-01-19T07:07:15.534Z,-0.86
2019-01-19T07:08:15.525Z,-0.92
2019-01-19T07:09:15.514Z,-0.80
2019-01-19T07:10:15.506Z,-0.94
2019-01-19T07:11:15.496Z,-0.79
2019-01-19T07:12:15.480Z,-0.79
2019-01-19T07:13:15.480Z,-0.79
2019-01-19T07:14:15.472Z,-0.80
2019-01-19T07:15:15.460Z,-0.78
2019-01-19T07:16:15.440Z,-0.80
2019-01-19T07:17:15.446Z,-0.70
2019-01-19T07:18:15.415Z,-0.73
2019-01-19T07:19:15.408Z,-0.69
2019-01-19T07:20:15.407Z,-0.70
2019-01-19T07:21:15.398Z,-0.67
2019-01-19T07:22:15.378Z,-0.69
2019-01-19T07:23:15.366Z,-0.69
2019-01-19T07:24:15.364Z,-0.61
2019-01-19T07:25:15.341Z,-0.64
2019-01-19T07:26:15.340Z,-0.62
2019-01-19T07:27:15.330Z,-0.62
2019-01-19T07:28:15.320Z,-0.60
2019-01-19T07:29:15.305Z,-0.54
2019-01-19T07:30:15.300Z,-0.58
2019-01-19T07:31:15.282Z,-0.61
2019-01-19T07:32:15.272Z,-0.52
2019-01-19T07:33:15.258Z,-0.57
2019-01-19T07:34:15.252Z,-0.44
2019-01-19T07:35:15.238Z,-0.43
2019-01-19T07:36:15.230Z,-0.51
2019-01-19T07:37:15.224Z,-0.51
2019-01-19T07:38:15.211Z,-0.40
2019-01-19T07:39:15.198Z,-0.43
2019-01-19T07:40:15.194Z,-0.39
2019-01-19T07:41:15.180Z,-0.36
2019-01-19T07:42:15.172Z,-0.37
2019-01-19T07:43:15.163Z,-0.31
2019-01-19T07:44:15.144Z,-0.31
2019-01-19T07:45:15.134Z,-0.31
2019-01-19T07:46:15.121Z,-0.26
2019-01-19T07:47:15.116Z,-0.21
2019-01-19T07:48:15.108Z,-0.26
2019-01-19T07:49:15.093Z,-0.23
2019-01-19T07:50:15.084Z,-0.16
2019-01-19T07:51:15.074Z,-0.14
2019-01-19T07:52:15.062Z,-0.19
2019-01-19T07:53:15.053Z,-0.19
2019-01-19T07:54:15.050Z,-0.14
2019-01-19T07:55:15.028Z,-0.28
2019-01-19T07:56:15.024Z,-0.31
2019-01-19T07:57:15.008Z,-0.23
2019-01-19T07:58:14.994Z,-0.21
2019-01-19T07:59:14.984Z,-0.14
2019-01-19T08:00:14.979Z,-0.11
2019-01-19T08:01:14.963Z,-0.14
2019-01-19T08:02:14.952Z,-0.03
2019-01-19T08:03:14.944Z,0.08
2019-01-19T08:04:14.930Z,0.10
2019-01-19T08:05:14.922Z,0.20
2019-01-19T08:06:14.913Z,0.29
2019-01-19T08:07:17.340Z,0.44
2019-01-19T08:08:14.913Z,0.51
2019-01-19T08:09:14.882Z,0.70
2019-01-19T08:10:14.866Z,0.83
2019-01-19T08:11:14.858Z,0.91
2019-01-19T08:12:14.851Z,1.00
2019-01-19T08:13:14.832Z,1.18
2019-01-19T08:14:14.829Z,1.42
2019-01-19T08:15:14.826Z,1.79
2019-01-19T08:16:14.810Z,2.14
2019-01-19T08:17:14.795Z,2.60
2019-01-19T08:18:14.786Z,2.85
2019-01-19T08:19:14.782Z,3.08
2019-01-19T08:20:14.762Z,3.58
2019-01-19T08:21:14.754Z,4.05
2019-01-19T08:22:14.738Z,4.54
2019-01-19T08:23:14.732Z,5.04
2019-01-19T08:24:14.724Z,5.54
2019-01-19T08:25:14.707Z,6.00
2019-01-19T08:26:14.702Z,6.28
2019-01-19T08:27:14.684Z,6.52
2019-01-19T08:28:14.683Z,6.59
2019-01-19T08:29:14.670Z,6.69
2019-01-19T08:30:14.658Z,6.48
2019-01-19T08:31:14.655Z,6.76
2019-01-19T08:32:14.635Z,6.77
2019-01-19T08:33:14.628Z,6.43
2019-01-19T08:34:14.612Z,6.54
2019-01-19T08:35:14.604Z,5.82
2019-01-19T08:36:14.590Z,5.51
2019-01-19T08:37:14.589Z,4.66
2019-01-19T08:38:14.582Z,4.72
2019-01-19T08:39:14.567Z,4.78
2019-01-19T08:40:14.546Z,4.44
2019-01-19T08:41:14.539Z,4.62
2019-01-19T08:42:14.530Z,4.58
2019-01-19T08:43:14.518Z,4.26
2019-01-19T08:44:14.506Z,4.30
2019-01-19T08:45:14.509Z,4.60
2019-01-19T08:46:14.484Z,4.92
2019-01-19T08:47:14.478Z,4.52
2019-01-19T08:48:14.467Z,4.23
2019-01-19T08:49:14.451Z,4.22
2019-01-19T08:50:14.442Z,4.27
2019-01-19T08:51:14.434Z,4.54
2019-01-19T08:52:14.420Z,4.48
2019-01-19T08:53:14.409Z,4.36
2019-01-19T08:54:14.396Z,4.37
2019-01-19T08:55:14.438Z,4.45
2019-01-19T08:56:14.380Z,4.54
2019-01-19T08:57:14.387Z,5.07
2019-01-19T08:58:14.364Z,4.97
2019-01-19T08:59:14.347Z,4.60
2019-01-19T09:00:14.334Z,4.55
2019-01-19T09:01:14.320Z,4.80
2019-01-19T09:02:14.312Z,5.00
2019-01-19T09:03:14.303Z,5.13
2019-01-19T09:04:14.316Z,5.35
2019-01-19T09:05:14.280Z,5.21
2019-01-19T09:06:14.271Z,5.46
2019-01-19T09:07:14.260Z,5.49
2019-01-19T09:08:14.245Z,5.42
2019-01-19T09:09:14.242Z,5.54
2019-01-19T09:10:14.228Z,4.91
2019-01-19T09:11:14.221Z,4.29
2019-01-19T09:12:14.204Z,4.41
2019-01-19T09:13:14.208Z,4.75
2019-01-19T09:14:14.186Z,5.15
2019-01-19T09:15:14.167Z,5.31
2019-01-19T09:16:14.156Z,5.58
2019-01-19T09:17:14.151Z,5.79
2019-01-19T09:18:14.140Z,6.06
2019-01-19T09:19:14.132Z,6.58
2019-01-19T09:20:14.140Z,7.28
2019-01-19T09:21:14.102Z,7.80
2019-01-19T09:22:14.094Z,8.16
2019-01-19T09:23:14.090Z,8.33
2019-01-19T09:24:14.076Z,8.36
2019-01-19T09:25:14.066Z,8.65
2019-01-19T09:26:14.056Z,7.97
2019-01-19T09:27:14.049Z,7.27
2019-01-19T09:28:14.032Z,6.88
2019-01-19T09:29:14.027Z,6.61
2019-01-19T09:30:14.009Z,6.40
2019-01-19T09:31:14.005Z,6.49
2019-01-19T09:32:13.992Z,6.44
2019-01-19T09:33:13.980Z,5.85
2019-01-19T09:34:13.966Z,5.64
2019-01-19T09:35:13.955Z,5.60
2019-01-19T09:36:13.946Z,5.78
2019-01-19T09:37:13.937Z,6.04
2019-01-19T09:38:13.920Z,6.38
2019-01-19T09:39:13.909Z,6.08
2019-01-19T09:40:13.905Z,6.28
2019-01-19T09:41:13.911Z,6.33
2019-01-19T09:42:13.882Z,5.85
2019-01-19T09:43:13.924Z,5.82
2019-01-19T09:44:13.858Z,5.89
2019-01-19T09:45:13.849Z,5.91
2019-01-19T09:46:13.838Z,5.48
2019-01-19T09:47:13.826Z,5.17
2019-01-19T09:48:15.012Z,5.09
2019-01-19T09:49:13.812Z,5.25
2019-01-19T09:50:13.814Z,5.35
2019-01-19T09:51:13.780Z,5.38
2019-01-19T09:52:20.998Z,5.15
2019-01-19T09:53:14.760Z,5.17
2019-01-19T09:54:13.755Z,5.13
2019-01-19T09:55:13.744Z,5.22
2019-01-19T09:56:13.732Z,5.33
2019-01-19T09:57:13.724Z,5.54
2019-01-19T09:58:13.705Z,5.65
2019-01-19T09:59:13.697Z,5.76
2019-01-19T10:00:13.688Z,5.57
2019-01-19T10:01:13.674Z,5.57
2019-01-19T10:02:13.668Z,5.63
2019-01-19T10:03:13.991Z,5.81
2019-01-19T10:04:13.643Z,5.93
2019-01-19T10:05:13.636Z,6.15
2019-01-19T10:06:13.620Z,6.27
2019-01-19T10:07:13.608Z,6.36
2019-01-19T10:08:13.600Z,6.33
2019-01-19T10:09:13.591Z,6.27
2019-01-19T10:10:13.576Z,6.08
2019-01-19T10:11:13.570Z,5.94
2019-01-19T10:12:13.561Z,5.81
2019-01-19T10:13:13.549Z,5.74
2019-01-19T10:14:13.542Z,5.91
2019-01-19T10:15:13.524Z,6.01
2019-01-19T10:16:13.517Z,6.09
2019-01-19T10:17:13.505Z,6.14
2019-01-19T10:18:13.496Z,6.11
2019-01-19T10:19:13.483Z,6.08
2019-01-19T10:20:13.474Z,6.15
2019-01-19T10:21:13.466Z,6.27
2019-01-19T10:22:13.452Z,6.38
2019-01-19T10:23:13.455Z,6.31
2019-01-19T10:24:13.432Z,6.31
2019-01-19T10:25:13.418Z,6.44
2019-01-19T10:26:13.410Z,6.51
2019-01-19T10:27:13.397Z,6.41
2019-01-19T10:28:13.388Z,6.38
2019-01-19T10:29:13.388Z,6.49
2019-01-19T10:30:13.362Z,6.49
2019-01-19T10:31:13.352Z,6.48
2019-01-19T10:32:13.348Z,6.64
2019-01-19T10:33:13.331Z,6.40
2019-01-19T10:34:13.320Z,6.18
2019-01-19T10:35:13.320Z,6.21
2019-01-19T10:36:13.307Z,6.12
2019-01-19T10:37:13.292Z,6.28
2019-01-19T10:38:13.290Z,5.89
2019-01-19T10:39:13.270Z,5.76
2019-01-19T10:40:13.256Z,5.61
2019-01-19T10:41:13.250Z,5.56
2019-01-19T10:42:13.303Z,5.58
2019-01-19T10:43:13.220Z,5.61
2019-01-19T10:44:13.217Z,5.43
2019-01-19T10:45:13.204Z,5.40
2019-01-19T10:46:13.190Z,5.56
2019-01-19T10:47:13.184Z,5.68
2019-01-19T10:48:13.166Z,5.99
2019-01-19T10:49:13.162Z,6.14
2019-01-19T10:50:13.153Z,6.19
2019-01-19T10:51:13.138Z,6.28
2019-01-19T10:52:13.128Z,6.37
2019-01-19T10:53:13.448Z,6.43
2019-01-19T10:54:13.101Z,6.40
2019-01-19T10:55:13.096Z,6.52
2019-01-19T10:56:13.084Z,6.41
2019-01-19T10:57:13.072Z,6.17
2019-01-19T10:58:13.062Z,6.33
2019-01-19T10:59:13.055Z,6.01
2019-01-19T11:00:13.048Z,5.99
2019-01-19T11:01:13.033Z,6.17
2019-01-19T11:02:13.022Z,6.30
2019-01-19T11:03:13.011Z,6.46
2019-01-19T11:04:13.004Z,6.55
2019-01-19T11:05:12.985Z,6.62
2019-01-19T11:06:12.978Z,6.79
2019-01-19T11:07:12.969Z,7.05
2019-01-19T11:08:12.958Z,7.27
2019-01-19T11:09:12.944Z,7.37
2019-01-19T11:10:12.937Z,7.55
2019-01-19T11:11:12.939Z,7.39
2019-01-19T11:12:12.916Z,7.48
2019-01-19T11:13:12.907Z,7.32
2019-01-19T11:14:12.896Z,7.35
2019-01-19T11:15:12.887Z,7.46
2019-01-19T11:16:12.887Z,7.28
2019-01-19T11:17:12.864Z,7.39
2019-01-19T11:18:12.856Z,7.49
2019-01-19T11:19:12.842Z,7.43
2019-01-19T11:20:12.834Z,7.68
2019-01-19T11:21:12.824Z,7.64
2019-01-19T11:22:12.806Z,7.46
2019-01-19T11:23:12.794Z,6.97
2019-01-19T11:24:12.783Z,6.79
2019-01-19T11:25:12.775Z,6.81
2019-01-19T11:26:12.777Z,6.62
2019-01-19T11:27:12.753Z,6.67
2019-01-19T11:28:12.746Z,6.66
2019-01-19T11:29:12.735Z,6.44
2019-01-19T11:30:12.730Z,6.49
2019-01-19T11:31:12.723Z,6.44
2019-01-19T11:32:12.710Z,6.36
2019-01-19T11:33:14.031Z,6.40
2019-01-19T11:34:12.682Z,6.25
2019-01-19T11:35:12.671Z,6.18
2019-01-19T11:36:12.655Z,6.15
2019-01-19T11:37:12.662Z,6.11
2019-01-19T11:38:13.703Z,6.03
2019-01-19T11:39:13.630Z,5.96
2019-01-19T11:40:12.630Z,5.94
2019-01-19T11:41:12.657Z,6.01
2019-01-19T11:42:12.590Z,5.91
2019-01-19T11:43:12.597Z,5.86
2019-01-19T11:44:12.568Z,5.76
2019-01-19T11:45:12.560Z,5.63
2019-01-19T11:46:12.555Z,5.61
2019-01-19T11:47:12.538Z,5.57
2019-01-19T11:48:12.526Z,5.56
2019-01-19T11:49:12.514Z,5.53
2019-01-19T11:50:12.502Z,5.61
2019-01-19T11:51:12.501Z,5.63
2019-01-19T11:52:12.486Z,5.48
2019-01-19T11:53:12.474Z,5.45
2019-01-19T11:54:12.466Z,5.25
2019-01-19T11:55:12.452Z,5.04
2019-01-19T11:56:12.470Z,4.91
2019-01-19T11:57:12.470Z,4.82
2019-01-19T11:58:12.440Z,4.65
2019-01-19T11:59:12.404Z,4.62
2019-01-19T12:00:12.395Z,4.62
2019-01-19T12:01:12.420Z,4.60
2019-01-19T12:02:12.380Z,4.60
2019-01-19T12:03:12.367Z,4.82
2019-01-19T12:04:12.352Z,4.88
2019-01-19T12:05:12.349Z,4.86
2019-01-19T12:06:12.334Z,4.99
2019-01-19T12:07:12.325Z,4.89
2019-01-19T12:08:19.168Z,4.78
2019-01-19T12:09:13.300Z,4.44
2019-01-19T12:10:12.294Z,4.33
2019-01-19T12:11:12.292Z,4.27
2019-01-19T12:12:12.274Z,4.37
2019-01-19T12:13:12.256Z,4.09
2019-01-19T12:14:12.252Z,4.15
2019-01-19T12:15:12.241Z,4.22
2019-01-19T12:16:12.225Z,4.34
2019-01-19T12:17:12.216Z,4.23
2019-01-19T12:18:12.204Z,3.90
2019-01-19T12:19:12.193Z,3.58
2019-01-19T12:20:12.311Z,3.54
2019-01-19T12:21:12.170Z,3.73
2019-01-19T12:22:12.159Z,3.73
2019-01-19T12:23:12.152Z,3.62
2019-01-19T12:24:12.141Z,3.79
2019-01-19T12:25:12.125Z,3.80
2019-01-19T12:26:12.157Z,3.94
2019-01-19T12:27:12.102Z,4.09
2019-01-19T12:28:12.102Z,4.02
2019-01-19T12:29:12.084Z,4.12
2019-01-19T12:30:12.076Z,4.09
2019-01-19T12:31:12.065Z,4.09
2019-01-19T12:32:12.054Z,4.11
2019-01-19T12:33:12.040Z,4.05
2019-01-19T12:34:12.034Z,4.02
2019-01-19T12:35:12.018Z,3.91
2019-01-19T12:36:12.006Z,3.94
2019-01-19T12:37:12.004Z,3.97
2019-01-19T12:38:12.017Z,3.90
2019-01-19T12:39:11.979Z,3.69
2019-01-19T12:40:11.968Z,3.76
2019-01-19T12:41:11.957Z,3.78
2019-01-19T12:42:11.948Z,3.90
2019-01-19T12:43:11.942Z,3.96
2019-01-19T12:44:11.920Z,4.06
2019-01-19T12:45:11.920Z,4.11
2019-01-19T12:46:11.910Z,4.08
2019-01-19T12:47:11.906Z,4.16
2019-01-19T12:48:11.993Z,4.22
2019-01-19T12:49:11.871Z,4.16
2019-01-19T12:50:11.864Z,4.20
2019-01-19T12:51:11.865Z,4.24
2019-01-19T12:52:11.840Z,4.23
2019-01-19T12:53:11.832Z,4.23
2019-01-19T12:54:11.820Z,4.33
2019-01-19T12:55:11.819Z,4.36
2019-01-19T12:56:11.808Z,4.26
2019-01-19T12:57:11.794Z,4.12
2019-01-19T12:58:11.780Z,4.04
2019-01-19T12:59:11.764Z,4.12
2019-01-19T13:00:11.762Z,4.14
2019-01-19T13:01:11.759Z,4.18
2019-01-19T13:02:11.765Z,4.14
2019-01-19T13:03:11.748Z,4.15
2019-01-19T13:04:11.725Z,4.26
2019-01-19T13:05:11.699Z,4.26
2019-01-19T13:06:11.690Z,4.22
2019-01-19T13:07:11.687Z,4.26
2019-01-19T13:08:11.684Z,4.26
2019-01-19T13:09:12.653Z,4.36
2019-01-19T13:10:11.656Z,4.29
2019-01-19T13:11:11.640Z,4.33
2019-01-19T13:12:11.622Z,4.33
2019-01-19T13:13:11.615Z,4.30
2019-01-19T13:14:11.596Z,4.33